CES8667 ZYHB-ZYTL
Flight info
| Callsign | CES8667 |
|---|---|
| Flight time | N/A |
| Altitude | 36100 |
| Route | DUKIR W655 NIMEM W205 NULRA A588 VENOS |
| Aircraft | B738/M-SDE2E3FGHIRWXY/LB1 |
Departure
| Time | 2026-04-17 13:41 |
|---|---|
| Airport | Harbin Taiping International Airport (ZYHB) |
Arrival
| Time | N/A |
|---|---|
| Airport | Dalian Zhoushuizi International Airport (ZYTL) |
| Time | Latitude | Longitude | Altitude | Speed | Heading |
|---|---|---|---|---|---|
| 2026-04-17 13:40 | 45.60303 | 126.23686 | 471 ft | 2 kts | 130° |
| 2026-04-17 13:40 | 45.60283 | 126.23720 | 471 ft | 7 kts | 130° |
| 2026-04-17 13:40 | 45.60239 | 126.23771 | 471 ft | 9 kts | 162° |
| 2026-04-17 13:41 | 45.60070 | 126.23648 | 473 ft | 62 kts | 217° |
| 2026-04-17 13:41 | 45.59558 | 126.23017 | 480 ft | 130 kts | 221° |
| 2026-04-17 13:41 | 45.58732 | 126.22041 | 685 ft | 168 kts | 224° |
| 2026-04-17 13:41 | 45.57762 | 126.20948 | 1275 ft | 192 kts | 221° |
| 2026-04-17 13:42 | 45.56696 | 126.19787 | 2127 ft | 191 kts | 228° |
| 2026-04-17 13:42 | 45.55659 | 126.18548 | 2909 ft | 205 kts | 229° |
| 2026-04-17 13:42 | 45.54715 | 126.17403 | 3146 ft | 231 kts | 228° |
| 2026-04-17 13:42 | 45.53407 | 126.15835 | 3511 ft | 258 kts | 227° |
| 2026-04-17 13:43 | 45.52003 | 126.14183 | 4332 ft | 265 kts | 226° |
| 2026-04-17 13:43 | 45.50571 | 126.12515 | 5287 ft | 266 kts | 227° |
| 2026-04-17 13:43 | 45.49145 | 126.10860 | 6317 ft | 264 kts | 227° |
| 2026-04-17 13:43 | 45.47728 | 126.09214 | 7245 ft | 264 kts | 227° |
| 2026-04-17 13:44 | 45.46311 | 126.07566 | 8182 ft | 263 kts | 227° |
| 2026-04-17 13:44 | 45.44891 | 126.05918 | 9086 ft | 264 kts | 227° |
| 2026-04-17 13:44 | 45.43467 | 126.04262 | 9954 ft | 266 kts | 227° |
| 2026-04-17 13:44 | 45.42017 | 126.02571 | 10514 ft | 279 kts | 227° |
| 2026-04-17 13:45 | 45.40451 | 126.00735 | 10701 ft | 304 kts | 226° |
| 2026-04-17 13:45 | 45.38751 | 125.98753 | 10883 ft | 327 kts | 226° |
| 2026-04-17 13:45 | 45.36940 | 125.96685 | 11321 ft | 343 kts | 222° |
| 2026-04-17 13:45 | 45.34733 | 125.95187 | 11991 ft | 363 kts | 203° |
| 2026-04-17 13:46 | 45.32166 | 125.94772 | 12739 ft | 379 kts | 187° |
| 2026-04-17 13:46 | 45.29510 | 125.94800 | 13428 ft | 386 kts | 186° |
| 2026-04-17 13:46 | 45.26807 | 125.94832 | 14026 ft | 392 kts | 187° |
| 2026-04-17 13:46 | 45.24113 | 125.94840 | 14639 ft | 395 kts | 187° |
| 2026-04-17 13:47 | 45.21362 | 125.94824 | 15265 ft | 399 kts | 188° |
| 2026-04-17 13:47 | 45.18577 | 125.94798 | 15877 ft | 403 kts | 188° |
| 2026-04-17 13:47 | 45.15758 | 125.94767 | 16461 ft | 408 kts | 188° |
| 2026-04-17 13:47 | 45.12901 | 125.94736 | 17057 ft | 413 kts | 188° |
| 2026-04-17 13:48 | 45.10019 | 125.94707 | 17670 ft | 417 kts | 188° |
| 2026-04-17 13:48 | 45.07109 | 125.94679 | 18250 ft | 421 kts | 188° |
| 2026-04-17 13:48 | 45.04178 | 125.94652 | 18800 ft | 424 kts | 188° |
| 2026-04-17 13:48 | 45.01227 | 125.94627 | 19405 ft | 425 kts | 188° |
| 2026-04-17 13:49 | 44.98276 | 125.94603 | 19982 ft | 426 kts | 187° |
| 2026-04-17 13:49 | 44.95304 | 125.94576 | 20519 ft | 429 kts | 187° |
| 2026-04-17 13:49 | 44.92321 | 125.94549 | 21048 ft | 431 kts | 187° |
| 2026-04-17 13:49 | 44.89315 | 125.94522 | 21569 ft | 434 kts | 187° |
| 2026-04-17 13:50 | 44.86295 | 125.94494 | 22091 ft | 436 kts | 187° |
| 2026-04-17 13:50 | 44.83257 | 125.94467 | 22596 ft | 439 kts | 187° |
| 2026-04-17 13:50 | 44.80202 | 125.94440 | 23076 ft | 442 kts | 187° |
| 2026-04-17 13:50 | 44.77121 | 125.94412 | 23538 ft | 444 kts | 187° |
| 2026-04-17 13:51 | 44.74034 | 125.94363 | 23920 ft | 445 kts | 189° |
| 2026-04-17 13:51 | 44.70972 | 125.93944 | 24294 ft | 442 kts | 195° |
| 2026-04-17 13:51 | 44.67944 | 125.93239 | 24682 ft | 442 kts | 197° |
| 2026-04-17 13:51 | 44.64914 | 125.92460 | 25046 ft | 445 kts | 197° |
| 2026-04-17 13:52 | 44.61864 | 125.91704 | 25400 ft | 448 kts | 197° |
| 2026-04-17 13:52 | 44.58781 | 125.90995 | 25747 ft | 451 kts | 196° |
| 2026-04-17 13:52 | 44.55675 | 125.90319 | 26079 ft | 454 kts | 195° |
| 2026-04-17 13:52 | 44.52545 | 125.89650 | 26418 ft | 457 kts | 195° |
| 2026-04-17 13:53 | 44.49409 | 125.88972 | 26744 ft | 459 kts | 195° |
| 2026-04-17 13:53 | 44.46253 | 125.88279 | 27061 ft | 461 kts | 195° |
| 2026-04-17 13:53 | 44.43083 | 125.87580 | 27366 ft | 464 kts | 195° |
| 2026-04-17 13:53 | 44.40958 | 125.87111 | 27574 ft | 465 kts | 195° |